createdAt,value
2023-02-09T00:00:10.120Z,5.28
2023-02-09T00:02:38.804Z,5.82
2023-02-09T00:05:05.680Z,4.43
2023-02-09T00:07:32.263Z,5.22
2023-02-09T00:09:58.947Z,5.75
2023-02-09T00:12:47.213Z,4.28
2023-02-09T00:15:13.765Z,3.67
2023-02-09T00:17:40.221Z,3.35
2023-02-09T00:20:07.782Z,4.63
2023-02-09T00:22:34.522Z,4.13
2023-02-09T00:25:01.075Z,4.32
2023-02-09T00:27:27.593Z,5.00
2023-02-09T00:29:54.058Z,6.60
2023-02-09T00:32:20.607Z,8.15
2023-02-09T00:34:47.222Z,8.13
2023-02-09T00:37:13.721Z,9.80
2023-02-09T00:39:40.236Z,9.80
2023-02-09T00:42:06.822Z,8.75
2023-02-09T00:44:40.312Z,7.18
2023-02-09T00:47:08.746Z,7.53
2023-02-09T00:49:36.010Z,7.90
2023-02-09T00:52:03.993Z,7.03
2023-02-09T00:54:30.610Z,7.90
2023-02-09T00:57:05.034Z,6.32
2023-02-09T00:59:33.901Z,6.68
2023-02-09T01:02:00.784Z,6.45
2023-02-09T01:04:28.149Z,7.60
2023-02-09T01:06:54.682Z,6.28
2023-02-09T01:09:21.196Z,6.82
2023-02-09T01:11:47.703Z,5.90
2023-02-09T01:14:14.258Z,6.53
2023-02-09T01:16:40.919Z,7.57
2023-02-09T01:19:07.629Z,7.50
2023-02-09T01:21:34.202Z,7.50
2023-02-09T01:24:00.950Z,7.53
2023-02-09T01:26:28.163Z,6.50
2023-02-09T01:28:54.659Z,6.50
2023-02-09T01:31:26.903Z,7.28
2023-02-09T01:33:55.608Z,6.53
2023-02-09T01:36:22.800Z,6.38
2023-02-09T01:38:49.780Z,6.07
2023-02-09T01:41:16.418Z,5.80
2023-02-09T01:43:53.631Z,4.72
2023-02-09T01:46:21.824Z,4.10
2023-02-09T01:48:51.278Z,5.07
2023-02-09T01:51:19.172Z,3.85
2023-02-09T01:53:46.364Z,4.18
2023-02-09T01:56:18.780Z,2.63
2023-02-09T01:58:46.760Z,3.10
2023-02-09T02:01:14.394Z,3.25
2023-02-09T02:03:41.569Z,2.88
2023-02-09T02:06:12.793Z,2.55
2023-02-09T02:08:58.870Z,3.42
2023-02-09T02:11:28.247Z,2.13
2023-02-09T02:13:54.769Z,3.67
2023-02-09T02:16:42.644Z,3.20
2023-02-09T02:19:12.019Z,2.58
2023-02-09T02:21:57.261Z,2.70
2023-02-09T02:24:37.141Z,2.90
2023-02-09T02:27:53.230Z,3.78
2023-02-09T02:30:28.432Z,2.45
2023-02-09T02:33:18.532Z,3.30
2023-02-09T02:36:01.463Z,3.25
2023-02-09T02:38:41.294Z,2.17
2023-02-09T02:41:16.460Z,3.20
2023-02-09T02:44:02.681Z,2.43
2023-02-09T02:46:58.564Z,2.97
2023-02-09T02:49:54.351Z,3.58
2023-02-09T02:52:20.918Z,3.35
2023-02-09T02:54:59.498Z,2.60
2023-02-09T02:57:31.434Z,3.22
2023-02-09T03:00:04.765Z,2.33
2023-02-09T03:02:37.195Z,3.22
2023-02-09T03:05:05.625Z,3.55
2023-02-09T03:07:32.902Z,2.92
2023-02-09T03:10:01.459Z,3.35
2023-02-09T03:12:33.595Z,2.92
2023-02-09T03:15:23.487Z,3.53
2023-02-09T03:18:12.169Z,3.55
2023-02-09T03:20:50.934Z,2.83
2023-02-09T03:23:47.294Z,3.67
2023-02-09T03:26:20.605Z,3.95
2023-02-09T03:28:51.792Z,3.50
2023-02-09T03:31:18.790Z,3.50
2023-02-09T03:33:45.887Z,3.83
2023-02-09T03:36:21.606Z,3.27
2023-02-09T03:38:48.335Z,3.20
2023-02-09T03:41:15.148Z,3.73
2023-02-09T03:44:00.295Z,4.03
2023-02-09T03:48:53.428Z,4.07
2023-02-09T03:51:19.889Z,3.37
2023-02-09T03:53:47.217Z,4.30
2023-02-09T03:56:13.832Z,3.87
2023-02-09T03:58:40.421Z,3.60
2023-02-09T04:01:09.394Z,3.63
2023-02-09T04:03:38.055Z,3.43
2023-02-09T04:06:04.868Z,3.37
2023-02-09T04:08:33.184Z,4.00
2023-02-09T04:11:00.023Z,4.23
2023-02-09T04:13:26.605Z,3.63
2023-02-09T04:15:53.395Z,4.60
2023-02-09T04:18:20.357Z,4.30
2023-02-09T04:20:47.293Z,3.93
2023-02-09T04:23:14.066Z,5.70
2023-02-09T04:25:40.670Z,4.27
2023-02-09T04:28:07.623Z,5.03
2023-02-09T04:30:34.230Z,4.63
2023-02-09T04:33:00.903Z,4.33
2023-02-09T04:35:27.487Z,3.73
2023-02-09T04:37:54.008Z,4.40
2023-02-09T04:40:21.708Z,4.73
2023-02-09T04:42:48.322Z,4.50
2023-02-09T04:45:14.895Z,4.50
2023-02-09T04:47:41.592Z,5.27
2023-02-09T04:50:08.997Z,5.03
2023-02-09T04:52:35.509Z,4.43
2023-02-09T04:55:02.068Z,4.60
2023-02-09T04:57:47.133Z,5.03
2023-02-09T05:00:14.060Z,4.80
2023-02-09T05:02:41.373Z,5.33
2023-02-09T05:05:08.112Z,4.73
2023-02-09T05:07:34.655Z,4.53
2023-02-09T05:10:01.954Z,5.23
2023-02-09T05:12:28.451Z,5.10
2023-02-09T05:14:54.908Z,4.63
2023-02-09T05:17:21.501Z,5.30
2023-02-09T05:19:48.771Z,4.63
2023-02-09T05:22:15.792Z,5.33
2023-02-09T05:24:42.316Z,5.40
2023-02-09T05:27:08.874Z,4.60
2023-02-09T05:29:35.466Z,5.87
2023-02-09T05:32:02.024Z,6.03
2023-02-09T05:34:28.519Z,6.07
2023-02-09T05:36:55.035Z,6.00
2023-02-09T05:39:22.318Z,5.40
2023-02-09T05:42:07.582Z,5.60
2023-02-09T05:47:00.729Z,5.23
2023-02-09T05:49:27.260Z,5.20
2023-02-09T05:51:53.762Z,5.00
2023-02-09T05:54:20.321Z,5.30
2023-02-09T05:56:46.959Z,5.07
2023-02-09T05:59:13.880Z,5.07
2023-02-09T06:01:40.549Z,5.07
2023-02-09T06:04:09.105Z,5.03
2023-02-09T06:06:36.214Z,4.23
2023-02-09T06:09:03.305Z,5.10
2023-02-09T06:11:29.997Z,4.57
2023-02-09T06:13:56.453Z,4.97
2023-02-09T06:16:23.079Z,4.60
2023-02-09T06:18:49.564Z,3.90
2023-02-09T06:21:16.053Z,4.03
2023-02-09T06:23:42.609Z,4.67
2023-02-09T06:26:11.684Z,5.33
2023-02-09T06:28:38.476Z,5.33
2023-02-09T06:31:06.651Z,4.53
2023-02-09T06:33:34.388Z,5.43
2023-02-09T06:36:01.117Z,5.10
2023-02-09T06:38:30.172Z,5.33
2023-02-09T06:40:56.765Z,4.60
2023-02-09T06:43:23.296Z,6.00
2023-02-09T06:45:49.841Z,5.17
2023-02-09T06:48:16.392Z,5.37
2023-02-09T06:50:43.403Z,6.47
2023-02-09T06:53:10.109Z,5.57
2023-02-09T06:55:36.632Z,6.00
2023-02-09T06:58:03.925Z,6.97
2023-02-09T07:00:31.650Z,7.57
2023-02-09T07:02:59.406Z,6.03
2023-02-09T07:05:26.289Z,5.67
2023-02-09T07:07:52.786Z,6.40
2023-02-09T07:10:19.719Z,6.43
2023-02-09T07:12:46.321Z,6.13
2023-02-09T07:15:14.443Z,5.53
2023-02-09T07:17:42.263Z,5.97
2023-02-09T07:20:09.924Z,6.63
2023-02-09T07:22:36.511Z,6.67
2023-02-09T07:25:03.050Z,9.43
2023-02-09T07:27:29.614Z,7.47
2023-02-09T07:29:56.167Z,8.37
2023-02-09T07:32:23.963Z,9.10
2023-02-09T07:34:50.559Z,8.93
2023-02-09T07:37:17.979Z,8.80
2023-02-09T07:39:44.812Z,8.30
2023-02-09T07:42:11.490Z,8.67
2023-02-09T07:44:38.355Z,10.63
2023-02-09T07:47:04.873Z,9.70
2023-02-09T07:49:35.009Z,9.27
2023-02-09T07:52:01.582Z,9.50
2023-02-09T07:54:28.219Z,8.67
2023-02-09T07:56:55.588Z,9.37
2023-02-09T07:59:22.056Z,10.77
2023-02-09T08:01:48.849Z,9.53
2023-02-09T08:04:15.528Z,10.10
2023-02-09T08:06:46.176Z,9.37
2023-02-09T08:09:16.821Z,10.73
2023-02-09T08:12:03.392Z,9.77
2023-02-09T08:14:36.770Z,10.57
2023-02-09T08:17:28.204Z,10.80
2023-02-09T08:20:02.221Z,10.97
2023-02-09T08:22:33.608Z,11.07
2023-02-09T08:25:02.064Z,11.60
2023-02-09T08:27:29.670Z,11.17
2023-02-09T08:29:58.495Z,12.13
2023-02-09T08:32:25.036Z,10.37
2023-02-09T08:34:52.019Z,10.97
2023-02-09T08:37:18.851Z,10.33
2023-02-09T08:39:45.402Z,12.30
2023-02-09T08:42:11.979Z,12.17
2023-02-09T08:44:38.481Z,14.20
2023-02-09T08:47:05.260Z,11.13
2023-02-09T08:49:31.828Z,12.53
2023-02-09T08:51:58.510Z,12.50
2023-02-09T08:54:25.477Z,12.17
2023-02-09T08:56:52.774Z,12.67
2023-02-09T08:59:20.227Z,11.67
2023-02-09T09:01:46.727Z,12.90
2023-02-09T09:04:13.265Z,13.33
2023-02-09T09:06:40.139Z,12.67
2023-02-09T09:09:06.624Z,12.43
2023-02-09T09:11:33.212Z,13.43
2023-02-09T09:13:59.749Z,14.10
2023-02-09T09:16:26.365Z,12.90
2023-02-09T09:18:53.532Z,12.60
2023-02-09T09:21:20.153Z,13.60
2023-02-09T09:23:47.113Z,13.33
2023-02-09T09:26:14.771Z,18.70
2023-02-09T09:28:41.367Z,12.93
2023-02-09T09:31:13.176Z,12.40
2023-02-09T09:33:40.796Z,11.00
2023-02-09T09:36:07.899Z,12.55
2023-02-09T09:38:35.980Z,12.03
2023-02-09T09:41:04.896Z,12.67
2023-02-09T09:43:37.604Z,12.07
2023-02-09T09:46:06.963Z,10.95
2023-02-09T09:48:44.281Z,13.60
2023-02-09T09:51:34.076Z,11.93
2023-02-09T09:54:03.708Z,11.18
2023-02-09T09:56:32.590Z,12.52
2023-02-09T09:59:00.620Z,10.57
2023-02-09T10:01:30.740Z,11.13
2023-02-09T10:04:02.202Z,12.67
2023-02-09T10:06:33.484Z,11.43
2023-02-09T10:09:12.268Z,12.48
2023-02-09T10:11:50.932Z,11.65
2023-02-09T10:14:17.811Z,11.25
2023-02-09T10:16:45.416Z,11.52
2023-02-09T10:19:22.591Z,11.30
2023-02-09T10:21:49.706Z,12.73
2023-02-09T10:24:25.247Z,10.98
2023-02-09T10:27:05.014Z,10.70
2023-02-09T10:29:31.942Z,11.55
2023-02-09T10:32:05.260Z,13.18
2023-02-09T10:34:42.746Z,12.10
2023-02-09T10:37:24.214Z,11.77
2023-02-09T10:40:26.608Z,11.25
2023-02-09T10:43:02.189Z,11.15
2023-02-09T10:45:41.903Z,10.13
2023-02-09T10:48:19.203Z,8.23
2023-02-09T10:51:16.960Z,8.18
2023-02-09T10:54:19.960Z,9.25
2023-02-09T10:56:49.401Z,7.00
2023-02-09T10:59:25.426Z,7.03
2023-02-09T11:02:02.590Z,7.38
2023-02-09T11:04:41.169Z,9.23
2023-02-09T11:07:17.447Z,6.63
2023-02-09T11:09:51.392Z,5.97
2023-02-09T11:12:22.634Z,5.43
2023-02-09T11:14:49.741Z,5.20
2023-02-09T11:17:51.065Z,4.93
2023-02-09T11:20:33.576Z,6.82
2023-02-09T11:23:18.865Z,5.82
2023-02-09T11:26:07.984Z,6.55
2023-02-09T11:28:56.644Z,4.95
2023-02-09T11:31:44.278Z,8.02
2023-02-09T11:34:29.504Z,7.55
2023-02-09T11:37:17.312Z,7.78
2023-02-09T11:39:53.734Z,7.88
2023-02-09T11:42:45.266Z,6.55
2023-02-09T11:45:17.897Z,7.00
2023-02-09T11:47:56.737Z,6.65
2023-02-09T11:50:45.339Z,7.43
2023-02-09T11:53:35.264Z,6.38
2023-02-09T11:56:08.541Z,6.53
2023-02-09T11:58:44.653Z,5.80
2023-02-09T12:01:37.919Z,5.63
2023-02-09T12:04:16.939Z,5.95
2023-02-09T12:06:49.697Z,6.47
2023-02-09T12:09:55.336Z,5.38
2023-02-09T12:12:28.998Z,5.00
2023-02-09T12:15:12.211Z,4.43
2023-02-09T12:18:13.231Z,4.57
2023-02-09T12:21:00.428Z,4.80
2023-02-09T12:23:35.430Z,4.95
2023-02-09T12:26:17.314Z,4.90
2023-02-09T12:29:17.952Z,4.25
2023-02-09T12:32:08.014Z,5.13
2023-02-09T12:34:41.368Z,4.80
2023-02-09T12:37:14.132Z,5.38
2023-02-09T12:40:11.540Z,5.50
2023-02-09T12:42:43.819Z,5.82
2023-02-09T12:45:31.907Z,7.20
2023-02-09T12:48:10.426Z,6.20
2023-02-09T12:50:43.431Z,6.25
2023-02-09T12:53:22.164Z,5.57
2023-02-09T12:56:07.245Z,8.57
2023-02-09T13:01:06.544Z,6.97
2023-02-09T13:03:44.167Z,5.95
2023-02-09T13:06:49.072Z,6.97
2023-02-09T13:09:26.171Z,7.17
2023-02-09T13:12:14.615Z,5.07
2023-02-09T13:14:49.430Z,5.32
2023-02-09T13:17:42.350Z,4.70
2023-02-09T13:20:34.590Z,4.30
2023-02-09T13:23:16.429Z,5.30
2023-02-09T13:25:44.378Z,4.28
2023-02-09T13:28:19.788Z,4.70
2023-02-09T13:30:47.366Z,4.82
2023-02-09T13:33:20.970Z,5.40
2023-02-09T13:35:47.844Z,4.55
2023-02-09T13:38:21.384Z,5.30
2023-02-09T13:40:50.481Z,4.60
2023-02-09T13:43:32.674Z,4.15
2023-02-09T13:46:01.414Z,4.95
2023-02-09T13:48:34.193Z,4.13
2023-02-09T13:51:03.825Z,4.75
2023-02-09T13:53:31.815Z,3.92
2023-02-09T13:56:00.501Z,3.13
2023-02-09T13:58:32.013Z,3.75
2023-02-09T14:01:03.535Z,4.00
2023-02-09T14:03:56.715Z,3.63
2023-02-09T14:06:39.048Z,4.03
2023-02-09T14:09:13.614Z,3.17
2023-02-09T14:11:46.351Z,3.53
2023-02-09T14:14:54.721Z,3.92
2023-02-09T14:17:28.020Z,3.83
2023-02-09T14:19:56.838Z,4.00
2023-02-09T14:22:39.964Z,3.50
2023-02-09T14:25:15.558Z,3.67
2023-02-09T14:27:47.502Z,3.28
2023-02-09T14:30:16.677Z,3.00
2023-02-09T14:32:45.407Z,3.40
2023-02-09T14:35:23.280Z,3.88
2023-02-09T14:37:52.199Z,3.10
2023-02-09T14:40:28.079Z,2.58
2023-02-09T14:43:06.926Z,3.63
2023-02-09T14:45:39.651Z,3.00
2023-02-09T14:48:17.606Z,5.35
2023-02-09T14:50:44.158Z,2.70
2023-02-09T14:53:14.178Z,2.55
2023-02-09T14:55:40.781Z,3.00
2023-02-09T14:58:12.215Z,2.92
2023-02-09T15:00:38.705Z,3.25
2023-02-09T15:03:05.288Z,3.70
2023-02-09T15:05:31.861Z,3.22
2023-02-09T15:08:04.243Z,3.33
2023-02-09T15:10:38.351Z,3.45
2023-02-09T15:13:05.305Z,3.38
2023-02-09T15:15:33.346Z,4.63
2023-02-09T15:18:00.566Z,3.42
2023-02-09T15:20:28.465Z,3.53
2023-02-09T15:22:55.939Z,2.67
2023-02-09T15:25:24.216Z,3.30
2023-02-09T15:27:53.892Z,3.13
2023-02-09T15:30:27.175Z,3.40
2023-02-09T15:32:54.073Z,2.60
2023-02-09T15:35:23.888Z,2.85
2023-02-09T15:37:56.449Z,2.90
2023-02-09T15:40:51.999Z,2.15
2023-02-09T15:43:40.397Z,2.90
2023-02-09T15:46:10.976Z,2.90
2023-02-09T15:48:37.573Z,3.03
2023-02-09T15:51:04.390Z,3.55
2023-02-09T15:53:32.021Z,4.07
2023-02-09T15:55:59.293Z,3.70
2023-02-09T15:58:35.759Z,2.90
2023-02-09T16:01:03.146Z,3.40
2023-02-09T16:03:31.767Z,3.30
2023-02-09T16:06:04.925Z,3.22
2023-02-09T16:08:37.540Z,2.63
2023-02-09T16:11:09.518Z,2.78
2023-02-09T16:13:36.580Z,2.72
2023-02-09T16:16:16.273Z,2.80
2023-02-09T16:18:44.183Z,2.63
2023-02-09T16:21:31.534Z,2.10
2023-02-09T16:24:04.056Z,2.20
2023-02-09T16:26:32.260Z,2.95
2023-02-09T16:28:58.985Z,5.32
2023-02-09T16:31:26.603Z,2.53
2023-02-09T16:33:53.092Z,2.67
2023-02-09T16:36:22.215Z,3.78
2023-02-09T16:38:49.172Z,3.45
2023-02-09T16:41:36.973Z,3.15
2023-02-09T16:44:16.609Z,4.43
2023-02-09T16:46:44.529Z,4.25
2023-02-09T16:49:34.648Z,4.50
2023-02-09T16:52:05.870Z,3.78
2023-02-09T16:54:40.605Z,3.92
2023-02-09T16:59:33.623Z,4.18
2023-02-09T17:02:00.330Z,4.72
2023-02-09T17:04:26.843Z,4.57
2023-02-09T17:06:53.388Z,5.18
2023-02-09T17:09:19.920Z,5.00
2023-02-09T17:11:46.461Z,4.95
2023-02-09T17:14:12.979Z,4.28
2023-02-09T17:16:43.269Z,5.18
2023-02-09T17:19:15.327Z,5.13
2023-02-09T17:21:42.426Z,4.82
2023-02-09T17:24:17.271Z,4.72
2023-02-09T17:26:44.442Z,5.07
2023-02-09T17:29:11.214Z,4.80
2023-02-09T17:31:52.252Z,5.05
2023-02-09T17:34:20.633Z,4.90
2023-02-09T17:36:47.205Z,5.95
2023-02-09T17:39:14.028Z,5.88
2023-02-09T17:41:45.291Z,5.53
2023-02-09T17:44:29.070Z,5.25
2023-02-09T17:47:03.252Z,5.97
2023-02-09T17:49:29.836Z,6.20
2023-02-09T17:51:56.697Z,5.13
2023-02-09T17:54:23.261Z,6.25
2023-02-09T17:56:49.873Z,6.07
2023-02-09T17:59:19.699Z,6.97
2023-02-09T18:01:50.374Z,6.47
2023-02-09T18:04:22.975Z,7.07
2023-02-09T18:06:49.842Z,7.07
2023-02-09T18:09:16.504Z,7.30
2023-02-09T18:11:45.937Z,7.43
2023-02-09T18:14:14.038Z,8.40
2023-02-09T18:16:42.674Z,7.70
2023-02-09T18:19:12.610Z,8.20
2023-02-09T18:21:50.825Z,7.68
2023-02-09T18:24:19.397Z,8.45
2023-02-09T18:26:47.880Z,7.68
2023-02-09T18:29:14.424Z,8.00
2023-02-09T18:31:41.148Z,8.55
2023-02-09T18:34:08.244Z,7.70
2023-02-09T18:36:35.558Z,7.90
2023-02-09T18:39:02.376Z,12.35
2023-02-09T18:41:29.049Z,8.75
2023-02-09T18:43:56.136Z,16.48
2023-02-09T18:46:25.604Z,10.63
2023-02-09T18:48:52.470Z,12.60
2023-02-09T18:51:18.976Z,9.73
2023-02-09T18:53:45.694Z,8.10
2023-02-09T18:56:19.947Z,9.25
2023-02-09T18:58:47.328Z,10.13
2023-02-09T19:01:13.929Z,10.57
2023-02-09T19:03:40.595Z,9.90
2023-02-09T19:06:10.968Z,10.52
2023-02-09T19:08:39.469Z,10.57
2023-02-09T19:11:06.797Z,10.60
2023-02-09T19:13:34.124Z,10.75
2023-02-09T19:16:01.193Z,11.70
2023-02-09T19:18:28.244Z,12.25
2023-02-09T19:20:57.869Z,11.98
2023-02-09T19:23:25.171Z,10.57
2023-02-09T19:26:02.695Z,10.50
2023-02-09T19:28:29.631Z,10.90
2023-02-09T19:30:56.892Z,10.25
2023-02-09T19:33:23.569Z,10.15
2023-02-09T19:35:59.734Z,10.68
2023-02-09T19:38:26.921Z,11.50
2023-02-09T19:41:09.525Z,11.20
2023-02-09T19:43:36.801Z,11.15
2023-02-09T19:46:04.578Z,12.48
2023-02-09T19:48:31.640Z,11.80
2023-02-09T19:50:59.307Z,13.13
2023-02-09T19:53:27.099Z,13.02
2023-02-09T19:55:54.438Z,14.38
2023-02-09T19:58:21.836Z,16.35
2023-02-09T20:00:49.797Z,14.65
2023-02-09T20:03:17.915Z,14.90
2023-02-09T20:05:45.599Z,15.25
2023-02-09T20:08:14.393Z,14.70
2023-02-09T20:10:41.023Z,16.50
2023-02-09T20:13:09.010Z,15.82
2023-02-09T20:15:36.155Z,15.77
2023-02-09T20:18:02.654Z,15.52
2023-02-09T20:20:29.454Z,15.40
2023-02-09T20:22:55.975Z,16.20
2023-02-09T20:25:22.574Z,15.02
2023-02-09T20:27:50.147Z,15.65
2023-02-09T20:30:16.988Z,15.32
2023-02-09T20:32:43.667Z,15.02
2023-02-09T20:35:12.108Z,15.23
2023-02-09T20:37:39.173Z,14.05
2023-02-09T20:40:06.315Z,14.90
2023-02-09T20:42:52.778Z,15.38
2023-02-09T20:45:37.941Z,15.90
2023-02-09T20:50:33.141Z,15.77
2023-02-09T20:53:01.496Z,15.57
2023-02-09T20:55:28.842Z,16.88
2023-02-09T20:57:55.416Z,15.52
2023-02-09T21:00:22.475Z,16.73
2023-02-09T21:02:49.174Z,15.70
2023-02-09T21:05:16.629Z,15.48
2023-02-09T21:07:43.262Z,16.30
2023-02-09T21:10:12.857Z,18.02
2023-02-09T21:12:39.472Z,16.00
2023-02-09T21:15:06.458Z,16.75
2023-02-09T21:17:33.251Z,16.48
2023-02-09T21:20:00.234Z,15.02
2023-02-09T21:22:26.786Z,14.93
2023-02-09T21:24:53.428Z,15.10
2023-02-09T21:27:20.456Z,14.00
2023-02-09T21:29:47.056Z,14.73
2023-02-09T21:32:13.739Z,14.68
2023-02-09T21:34:40.238Z,13.35
2023-02-09T21:37:10.161Z,14.90
2023-02-09T21:39:36.817Z,14.15
2023-02-09T21:42:22.799Z,15.43
2023-02-09T21:44:49.343Z,16.17
2023-02-09T21:47:16.011Z,16.83
2023-02-09T21:49:42.522Z,17.52
2023-02-09T21:52:09.058Z,18.67
2023-02-09T21:54:35.575Z,19.23
2023-02-09T21:57:03.586Z,20.83
2023-02-09T21:59:30.225Z,18.92
2023-02-09T22:01:56.994Z,18.30
2023-02-09T22:04:23.615Z,17.63
2023-02-09T22:06:50.241Z,16.60
2023-02-09T22:09:16.854Z,14.23
2023-02-09T22:11:43.392Z,13.50
2023-02-09T22:14:09.890Z,14.88
2023-02-09T22:16:36.558Z,14.02
2023-02-09T22:19:04.037Z,13.35
2023-02-09T22:21:30.521Z,13.65
2023-02-09T22:23:57.079Z,13.52
2023-02-09T22:26:23.556Z,12.65
2023-02-09T22:28:50.253Z,12.15
2023-02-09T22:31:19.708Z,12.35
2023-02-09T22:33:46.270Z,12.38
2023-02-09T22:36:18.069Z,14.40
2023-02-09T22:38:45.339Z,14.80
2023-02-09T22:41:23.920Z,14.43
2023-02-09T22:43:53.624Z,13.73
2023-02-09T22:46:22.312Z,14.23
2023-02-09T22:48:56.807Z,13.35
2023-02-09T22:51:25.326Z,13.35
2023-02-09T22:53:51.888Z,12.65
2023-02-09T22:56:18.447Z,13.70
2023-02-09T22:58:45.052Z,11.88
2023-02-09T23:01:11.836Z,13.00
2023-02-09T23:03:39.219Z,14.07
2023-02-09T23:06:09.098Z,13.35
2023-02-09T23:08:35.987Z,13.50
2023-02-09T23:11:08.536Z,12.40
2023-02-09T23:13:36.744Z,13.35
2023-02-09T23:16:15.249Z,13.20
2023-02-09T23:18:56.633Z,12.18
2023-02-09T23:21:26.071Z,12.45
2023-02-09T23:23:52.962Z,13.15
2023-02-09T23:26:20.450Z,13.00
2023-02-09T23:28:48.010Z,12.75
2023-02-09T23:31:17.885Z,11.68
2023-02-09T23:33:45.349Z,12.05
2023-02-09T23:36:18.199Z,12.13
2023-02-09T23:38:46.325Z,12.48
2023-02-09T23:41:15.519Z,13.13
2023-02-09T23:43:43.023Z,12.30
2023-02-09T23:46:19.031Z,11.85
2023-02-09T23:48:45.985Z,13.37
2023-02-09T23:51:19.007Z,11.83
2023-02-09T23:53:46.874Z,11.77
2023-02-09T23:56:15.336Z,12.95
2023-02-09T23:58:44.474Z,12.40
